sensor_id;sensor_type;location;lat;lon;timestamp;P1;durP1;ratioP1;P2;durP2;ratioP2
791;SDS011;379;49.022;12.148;2023-04-24T00:01:47;2.10;;;1.97;;
791;SDS011;379;49.022;12.148;2023-04-24T00:04:15;1.77;;;1.20;;
791;SDS011;379;49.022;12.148;2023-04-24T00:06:42;1.30;;;1.00;;
791;SDS011;379;49.022;12.148;2023-04-24T00:09:09;1.50;;;0.73;;
791;SDS011;379;49.022;12.148;2023-04-24T00:11:36;1.80;;;1.20;;
791;SDS011;379;49.022;12.148;2023-04-24T00:14:03;2.13;;;2.03;;
791;SDS011;379;49.022;12.148;2023-04-24T00:16:30;1.23;;;1.13;;
791;SDS011;379;49.022;12.148;2023-04-24T00:18:58;2.20;;;1.43;;
791;SDS011;379;49.022;12.148;2023-04-24T00:21:25;1.67;;;1.40;;
791;SDS011;379;49.022;12.148;2023-04-24T00:23:52;2.67;;;1.43;;
791;SDS011;379;49.022;12.148;2023-04-24T00:26:19;2.30;;;2.10;;
791;SDS011;379;49.022;12.148;2023-04-24T00:28:45;4.30;;;1.77;;
791;SDS011;379;49.022;12.148;2023-04-24T00:31:12;4.57;;;1.60;;
791;SDS011;379;49.022;12.148;2023-04-24T00:33:39;2.33;;;1.83;;
791;SDS011;379;49.022;12.148;2023-04-24T00:36:07;2.10;;;1.97;;
791;SDS011;379;49.022;12.148;2023-04-24T00:38:34;3.43;;;3.20;;
791;SDS011;379;49.022;12.148;2023-04-24T00:41:01;2.20;;;2.00;;
791;SDS011;379;49.022;12.148;2023-04-24T00:43:28;3.03;;;1.93;;
791;SDS011;379;49.022;12.148;2023-04-24T00:45:54;3.10;;;2.40;;
791;SDS011;379;49.022;12.148;2023-04-24T00:48:21;1.20;;;1.10;;
791;SDS011;379;49.022;12.148;2023-04-24T00:50:49;2.13;;;1.50;;
791;SDS011;379;49.022;12.148;2023-04-24T00:53:17;1.47;;;1.23;;
791;SDS011;379;49.022;12.148;2023-04-24T00:55:45;6.20;;;2.30;;
791;SDS011;379;49.022;12.148;2023-04-24T00:58:12;4.23;;;3.83;;
791;SDS011;379;49.022;12.148;2023-04-24T01:00:39;1.80;;;1.70;;
791;SDS011;379;49.022;12.148;2023-04-24T01:03:06;6.03;;;3.20;;
791;SDS011;379;49.022;12.148;2023-04-24T01:05:34;1.40;;;1.30;;
791;SDS011;379;49.022;12.148;2023-04-24T01:08:01;4.30;;;1.80;;
791;SDS011;379;49.022;12.148;2023-04-24T01:10:29;2.00;;;1.43;;
791;SDS011;379;49.022;12.148;2023-04-24T01:12:58;3.23;;;1.50;;
791;SDS011;379;49.022;12.148;2023-04-24T01:15:25;1.23;;;1.13;;
791;SDS011;379;49.022;12.148;2023-04-24T01:17:52;2.33;;;1.70;;
791;SDS011;379;49.022;12.148;2023-04-24T01:20:19;1.90;;;1.80;;
791;SDS011;379;49.022;12.148;2023-04-24T01:22:48;3.73;;;2.17;;
791;SDS011;379;49.022;12.148;2023-04-24T01:25:14;4.40;;;1.90;;
791;SDS011;379;49.022;12.148;2023-04-24T01:27:41;1.23;;;0.47;;
791;SDS011;379;49.022;12.148;2023-04-24T01:30:08;2.20;;;1.47;;
791;SDS011;379;49.022;12.148;2023-04-24T01:32:37;2.10;;;1.13;;
791;SDS011;379;49.022;12.148;2023-04-24T01:35:04;1.67;;;1.57;;
791;SDS011;379;49.022;12.148;2023-04-24T01:37:32;4.00;;;1.50;;
791;SDS011;379;49.022;12.148;2023-04-24T01:40:00;2.00;;;1.90;;
791;SDS011;379;49.022;12.148;2023-04-24T01:42:28;1.53;;;1.43;;
791;SDS011;379;49.022;12.148;2023-04-24T01:44:56;1.63;;;1.53;;
791;SDS011;379;49.022;12.148;2023-04-24T01:47:23;2.10;;;1.87;;
791;SDS011;379;49.022;12.148;2023-04-24T01:49:50;2.30;;;2.07;;
791;SDS011;379;49.022;12.148;2023-04-24T01:52:17;3.70;;;3.47;;
791;SDS011;379;49.022;12.148;2023-04-24T01:54:44;3.47;;;2.10;;
791;SDS011;379;49.022;12.148;2023-04-24T01:57:12;3.20;;;2.90;;
791;SDS011;379;49.022;12.148;2023-04-24T01:59:40;4.73;;;2.20;;
791;SDS011;379;49.022;12.148;2023-04-24T02:02:06;1.60;;;1.50;;
791;SDS011;379;49.022;12.148;2023-04-24T02:04:33;3.13;;;2.30;;
791;SDS011;379;49.022;12.148;2023-04-24T02:07:00;3.23;;;2.93;;
791;SDS011;379;49.022;12.148;2023-04-24T02:09:27;3.73;;;1.97;;
791;SDS011;379;49.022;12.148;2023-04-24T02:11:53;4.23;;;2.43;;
791;SDS011;379;49.022;12.148;2023-04-24T02:14:22;4.80;;;3.33;;
791;SDS011;379;49.022;12.148;2023-04-24T02:16:49;1.93;;;1.80;;
791;SDS011;379;49.022;12.148;2023-04-24T02:19:16;3.50;;;3.20;;
791;SDS011;379;49.022;12.148;2023-04-24T02:21:42;5.33;;;3.83;;
791;SDS011;379;49.022;12.148;2023-04-24T02:24:09;3.40;;;2.93;;
791;SDS011;379;49.022;12.148;2023-04-24T02:26:36;3.73;;;2.90;;
791;SDS011;379;49.022;12.148;2023-04-24T02:29:02;10.33;;;2.63;;
791;SDS011;379;49.022;12.148;2023-04-24T02:31:31;3.10;;;2.80;;
791;SDS011;379;49.022;12.148;2023-04-24T02:33:57;3.63;;;2.83;;
791;SDS011;379;49.022;12.148;2023-04-24T02:36:24;1.97;;;1.87;;
791;SDS011;379;49.022;12.148;2023-04-24T02:38:51;2.07;;;1.90;;
791;SDS011;379;49.022;12.148;2023-04-24T02:41:17;2.20;;;1.90;;
791;SDS011;379;49.022;12.148;2023-04-24T02:43:44;1.90;;;1.13;;
791;SDS011;379;49.022;12.148;2023-04-24T02:46:11;1.67;;;1.57;;
791;SDS011;379;49.022;12.148;2023-04-24T02:48:39;4.30;;;2.00;;
791;SDS011;379;49.022;12.148;2023-04-24T02:51:06;3.97;;;1.67;;
791;SDS011;379;49.022;12.148;2023-04-24T02:53:33;2.50;;;2.00;;
791;SDS011;379;49.022;12.148;2023-04-24T02:56:00;4.30;;;2.60;;
791;SDS011;379;49.022;12.148;2023-04-24T02:58:26;5.43;;;3.13;;
791;SDS011;379;49.022;12.148;2023-04-24T03:00:53;3.73;;;3.13;;
791;SDS011;379;49.022;12.148;2023-04-24T03:03:21;3.50;;;3.17;;
791;SDS011;379;49.022;12.148;2023-04-24T03:05:50;4.83;;;2.90;;
791;SDS011;379;49.022;12.148;2023-04-24T03:08:16;1.70;;;1.47;;
791;SDS011;379;49.022;12.148;2023-04-24T03:10:43;3.37;;;3.07;;
791;SDS011;379;49.022;12.148;2023-04-24T03:13:10;2.10;;;1.90;;
791;SDS011;379;49.022;12.148;2023-04-24T03:15:37;2.13;;;2.00;;
791;SDS011;379;49.022;12.148;2023-04-24T03:18:03;2.23;;;2.00;;
791;SDS011;379;49.022;12.148;2023-04-24T03:20:30;2.17;;;1.97;;
791;SDS011;379;49.022;12.148;2023-04-24T03:22:58;3.17;;;2.33;;
791;SDS011;379;49.022;12.148;2023-04-24T03:25:25;4.57;;;1.90;;
791;SDS011;379;49.022;12.148;2023-04-24T03:27:52;5.20;;;3.07;;
791;SDS011;379;49.022;12.148;2023-04-24T03:30:19;1.40;;;1.23;;
791;SDS011;379;49.022;12.148;2023-04-24T03:32:46;4.80;;;2.30;;
791;SDS011;379;49.022;12.148;2023-04-24T03:35:13;3.37;;;2.23;;
791;SDS011;379;49.022;12.148;2023-04-24T03:37:39;2.03;;;1.43;;
791;SDS011;379;49.022;12.148;2023-04-24T03:40:08;4.03;;;2.77;;
791;SDS011;379;49.022;12.148;2023-04-24T03:42:35;4.50;;;3.40;;
791;SDS011;379;49.022;12.148;2023-04-24T03:45:02;1.60;;;1.50;;
791;SDS011;379;49.022;12.148;2023-04-24T03:47:29;3.90;;;3.60;;
791;SDS011;379;49.022;12.148;2023-04-24T03:49:56;4.67;;;4.27;;
791;SDS011;379;49.022;12.148;2023-04-24T03:52:23;3.23;;;2.83;;
791;SDS011;379;49.022;12.148;2023-04-24T03:54:49;3.87;;;2.50;;
791;SDS011;379;49.022;12.148;2023-04-24T03:57:17;2.80;;;2.60;;
791;SDS011;379;49.022;12.148;2023-04-24T03:59:44;2.77;;;1.73;;
791;SDS011;379;49.022;12.148;2023-04-24T04:02:11;3.47;;;2.70;;
791;SDS011;379;49.022;12.148;2023-04-24T04:04:38;1.33;;;0.93;;
791;SDS011;379;49.022;12.148;2023-04-24T04:07:05;1.80;;;1.63;;
791;SDS011;379;49.022;12.148;2023-04-24T04:09:32;1.43;;;1.23;;
791;SDS011;379;49.022;12.148;2023-04-24T04:11:59;1.60;;;1.30;;
791;SDS011;379;49.022;12.148;2023-04-24T04:14:27;1.43;;;1.20;;
791;SDS011;379;49.022;12.148;2023-04-24T04:16:54;2.57;;;2.37;;
791;SDS011;379;49.022;12.148;2023-04-24T04:19:21;1.83;;;1.67;;
791;SDS011;379;49.022;12.148;2023-04-24T04:21:48;1.80;;;1.63;;
791;SDS011;379;49.022;12.148;2023-04-24T04:24:18;2.63;;;1.73;;
791;SDS011;379;49.022;12.148;2023-04-24T04:26:45;2.47;;;2.27;;
791;SDS011;379;49.022;12.148;2023-04-24T04:29:12;1.80;;;1.53;;
791;SDS011;379;49.022;12.148;2023-04-24T04:31:41;4.57;;;2.00;;
791;SDS011;379;49.022;12.148;2023-04-24T04:34:08;5.23;;;2.70;;
791;SDS011;379;49.022;12.148;2023-04-24T04:36:35;2.13;;;1.80;;
791;SDS011;379;49.022;12.148;2023-04-24T04:39:01;6.20;;;2.17;;
791;SDS011;379;49.022;12.148;2023-04-24T04:41:28;2.40;;;2.00;;
791;SDS011;379;49.022;12.148;2023-04-24T04:43:55;2.50;;;2.00;;
791;SDS011;379;49.022;12.148;2023-04-24T04:46:23;4.43;;;3.00;;
791;SDS011;379;49.022;12.148;2023-04-24T04:48:52;2.73;;;2.37;;
791;SDS011;379;49.022;12.148;2023-04-24T04:51:19;2.53;;;2.03;;
791;SDS011;379;49.022;12.148;2023-04-24T04:53:46;1.83;;;1.47;;
791;SDS011;379;49.022;12.148;2023-04-24T04:56:13;3.70;;;3.33;;
791;SDS011;379;49.022;12.148;2023-04-24T04:58:40;2.70;;;1.80;;
791;SDS011;379;49.022;12.148;2023-04-24T05:01:06;2.90;;;2.70;;
791;SDS011;379;49.022;12.148;2023-04-24T05:03:33;3.07;;;1.90;;
791;SDS011;379;49.022;12.148;2023-04-24T05:06:02;2.77;;;1.73;;
791;SDS011;379;49.022;12.148;2023-04-24T05:08:29;1.80;;;1.70;;
791;SDS011;379;49.022;12.148;2023-04-24T05:10:56;2.10;;;1.63;;
791;SDS011;379;49.022;12.148;2023-04-24T05:13:22;1.33;;;1.23;;
791;SDS011;379;49.022;12.148;2023-04-24T05:15:49;3.30;;;2.20;;
791;SDS011;379;49.022;12.148;2023-04-24T05:18:16;1.93;;;1.53;;
791;SDS011;379;49.022;12.148;2023-04-24T05:20:43;1.83;;;1.73;;
791;SDS011;379;49.022;12.148;2023-04-24T05:23:11;1.30;;;1.20;;
791;SDS011;379;49.022;12.148;2023-04-24T05:25:38;2.30;;;2.10;;
791;SDS011;379;49.022;12.148;2023-04-24T05:28:05;2.77;;;2.20;;
791;SDS011;379;49.022;12.148;2023-04-24T05:30:32;1.60;;;1.50;;
791;SDS011;379;49.022;12.148;2023-04-24T05:32:58;1.20;;;1.07;;
791;SDS011;379;49.022;12.148;2023-04-24T05:35:25;2.10;;;1.90;;
791;SDS011;379;49.022;12.148;2023-04-24T05:37:52;1.97;;;1.87;;
791;SDS011;379;49.022;12.148;2023-04-24T05:40:20;0.83;;;0.67;;
791;SDS011;379;49.022;12.148;2023-04-24T05:42:47;4.27;;;2.30;;
791;SDS011;379;49.022;12.148;2023-04-24T05:45:14;0.90;;;0.80;;
791;SDS011;379;49.022;12.148;2023-04-24T05:47:41;9.20;;;1.43;;
791;SDS011;379;49.022;12.148;2023-04-24T05:50:09;2.07;;;1.97;;
791;SDS011;379;49.022;12.148;2023-04-24T05:52:36;7.60;;;1.43;;
791;SDS011;379;49.022;12.148;2023-04-24T05:55:02;1.17;;;1.07;;
791;SDS011;379;49.022;12.148;2023-04-24T05:57:31;1.60;;;0.83;;
791;SDS011;379;49.022;12.148;2023-04-24T05:59:58;1.40;;;0.90;;
791;SDS011;379;49.022;12.148;2023-04-24T06:02:25;2.50;;;1.13;;
791;SDS011;379;49.022;12.148;2023-04-24T06:04:52;1.23;;;0.40;;
791;SDS011;379;49.022;12.148;2023-04-24T06:07:19;1.17;;;0.97;;
791;SDS011;379;49.022;12.148;2023-04-24T06:09:46;1.60;;;1.50;;
791;SDS011;379;49.022;12.148;2023-04-24T06:12:12;0.60;;;0.30;;
791;SDS011;379;49.022;12.148;2023-04-24T06:14:41;1.40;;;0.80;;
791;SDS011;379;49.022;12.148;2023-04-24T06:17:07;1.53;;;1.43;;
791;SDS011;379;49.022;12.148;2023-04-24T06:19:34;2.30;;;1.63;;
791;SDS011;379;49.022;12.148;2023-04-24T06:22:01;1.73;;;1.60;;
791;SDS011;379;49.022;12.148;2023-04-24T06:24:27;0.70;;;0.60;;
791;SDS011;379;49.022;12.148;2023-04-24T06:26:54;1.70;;;1.60;;
791;SDS011;379;49.022;12.148;2023-04-24T06:29:21;2.10;;;1.40;;
791;SDS011;379;49.022;12.148;2023-04-24T06:31:49;4.30;;;1.77;;
791;SDS011;379;49.022;12.148;2023-04-24T06:34:16;1.23;;;1.10;;
791;SDS011;379;49.022;12.148;2023-04-24T06:36:43;2.47;;;1.87;;
791;SDS011;379;49.022;12.148;2023-04-24T06:39:10;1.40;;;1.03;;
791;SDS011;379;49.022;12.148;2023-04-24T06:41:37;2.13;;;1.93;;
791;SDS011;379;49.022;12.148;2023-04-24T06:44:04;2.10;;;1.23;;
791;SDS011;379;49.022;12.148;2023-04-24T06:46:31;2.70;;;1.90;;
791;SDS011;379;49.022;12.148;2023-04-24T06:48:59;1.70;;;1.27;;
791;SDS011;379;49.022;12.148;2023-04-24T06:51:26;2.70;;;1.60;;
791;SDS011;379;49.022;12.148;2023-04-24T06:53:54;2.20;;;2.00;;
791;SDS011;379;49.022;12.148;2023-04-24T06:56:21;1.63;;;1.20;;
791;SDS011;379;49.022;12.148;2023-04-24T06:58:47;1.57;;;1.30;;
791;SDS011;379;49.022;12.148;2023-04-24T07:01:14;1.20;;;1.10;;
791;SDS011;379;49.022;12.148;2023-04-24T07:03:41;1.93;;;1.67;;
791;SDS011;379;49.022;12.148;2023-04-24T07:06:09;2.83;;;2.10;;
791;SDS011;379;49.022;12.148;2023-04-24T07:08:37;4.07;;;2.17;;
791;SDS011;379;49.022;12.148;2023-04-24T07:11:04;1.70;;;1.30;;
791;SDS011;379;49.022;12.148;2023-04-24T07:13:31;2.13;;;1.73;;
791;SDS011;379;49.022;12.148;2023-04-24T07:16:00;1.80;;;1.37;;
791;SDS011;379;49.022;12.148;2023-04-24T07:18:27;1.33;;;1.10;;
791;SDS011;379;49.022;12.148;2023-04-24T07:20:54;1.10;;;0.90;;
791;SDS011;379;49.022;12.148;2023-04-24T07:23:22;1.90;;;1.10;;
791;SDS011;379;49.022;12.148;2023-04-24T07:25:49;1.70;;;1.30;;
791;SDS011;379;49.022;12.148;2023-04-24T07:28:16;1.40;;;1.30;;
791;SDS011;379;49.022;12.148;2023-04-24T07:30:43;1.20;;;0.60;;
791;SDS011;379;49.022;12.148;2023-04-24T07:33:10;1.20;;;0.70;;
791;SDS011;379;49.022;12.148;2023-04-24T07:35:38;1.57;;;1.47;;
791;SDS011;379;49.022;12.148;2023-04-24T07:38:04;6.60;;;1.70;;
791;SDS011;379;49.022;12.148;2023-04-24T07:40:33;1.00;;;0.90;;
791;SDS011;379;49.022;12.148;2023-04-24T07:42:59;1.40;;;0.80;;
791;SDS011;379;49.022;12.148;2023-04-24T07:45:26;1.00;;;0.83;;
791;SDS011;379;49.022;12.148;2023-04-24T07:47:53;4.07;;;2.30;;
791;SDS011;379;49.022;12.148;2023-04-24T07:50:20;0.90;;;0.90;;
791;SDS011;379;49.022;12.148;2023-04-24T07:52:47;3.70;;;1.30;;
791;SDS011;379;49.022;12.148;2023-04-24T07:55:15;1.00;;;0.70;;
791;SDS011;379;49.022;12.148;2023-04-24T07:57:43;1.10;;;1.00;;
791;SDS011;379;49.022;12.148;2023-04-24T08:00:10;0.77;;;0.70;;
791;SDS011;379;49.022;12.148;2023-04-24T08:02:38;0.77;;;0.67;;
791;SDS011;379;49.022;12.148;2023-04-24T08:05:05;1.03;;;0.97;;
791;SDS011;379;49.022;12.148;2023-04-24T08:07:32;1.17;;;0.90;;
791;SDS011;379;49.022;12.148;2023-04-24T08:10:00;3.53;;;1.17;;
791;SDS011;379;49.022;12.148;2023-04-24T08:12:27;2.00;;;0.77;;
791;SDS011;379;49.022;12.148;2023-04-24T08:14:55;0.90;;;0.80;;
791;SDS011;379;49.022;12.148;2023-04-24T08:17:23;3.83;;;0.90;;
791;SDS011;379;49.022;12.148;2023-04-24T08:19:50;1.80;;;0.90;;
791;SDS011;379;49.022;12.148;2023-04-24T08:22:18;0.60;;;0.40;;
791;SDS011;379;49.022;12.148;2023-04-24T08:24:45;0.90;;;0.70;;
791;SDS011;379;49.022;12.148;2023-04-24T08:27:11;2.27;;;1.00;;
791;SDS011;379;49.022;12.148;2023-04-24T08:29:38;3.50;;;0.60;;
791;SDS011;379;49.022;12.148;2023-04-24T08:32:06;0.60;;;0.43;;
791;SDS011;379;49.022;12.148;2023-04-24T08:34:33;0.80;;;0.53;;
791;SDS011;379;49.022;12.148;2023-04-24T08:37:00;1.10;;;0.60;;
791;SDS011;379;49.022;12.148;2023-04-24T08:39:27;2.30;;;0.87;;
791;SDS011;379;49.022;12.148;2023-04-24T08:41:54;0.70;;;0.60;;
791;SDS011;379;49.022;12.148;2023-04-24T08:44:21;0.60;;;0.30;;
791;SDS011;379;49.022;12.148;2023-04-24T08:46:48;1.53;;;1.43;;
791;SDS011;379;49.022;12.148;2023-04-24T08:49:17;0.97;;;0.83;;
791;SDS011;379;49.022;12.148;2023-04-24T08:51:44;0.80;;;0.50;;
791;SDS011;379;49.022;12.148;2023-04-24T08:54:13;0.70;;;0.37;;
791;SDS011;379;49.022;12.148;2023-04-24T08:56:40;0.60;;;0.37;;
791;SDS011;379;49.022;12.148;2023-04-24T08:59:09;1.27;;;0.60;;
791;SDS011;379;49.022;12.148;2023-04-24T09:01:37;0.97;;;0.50;;
791;SDS011;379;49.022;12.148;2023-04-24T09:04:05;0.70;;;0.30;;
791;SDS011;379;49.022;12.148;2023-04-24T09:06:36;0.80;;;0.50;;
791;SDS011;379;49.022;12.148;2023-04-24T09:09:03;0.60;;;0.40;;
791;SDS011;379;49.022;12.148;2023-04-24T09:11:30;3.93;;;0.40;;
791;SDS011;379;49.022;12.148;2023-04-24T09:13:57;1.10;;;0.40;;
791;SDS011;379;49.022;12.148;2023-04-24T09:16:25;0.60;;;0.40;;
791;SDS011;379;49.022;12.148;2023-04-24T09:18:52;0.80;;;0.50;;
791;SDS011;379;49.022;12.148;2023-04-24T09:21:20;0.73;;;0.50;;
791;SDS011;379;49.022;12.148;2023-04-24T09:23:48;0.90;;;0.63;;
791;SDS011;379;49.022;12.148;2023-04-24T09:26:24;0.80;;;0.60;;
791;SDS011;379;49.022;12.148;2023-04-24T09:28:51;0.60;;;0.40;;
791;SDS011;379;49.022;12.148;2023-04-24T09:31:19;0.80;;;0.70;;
791;SDS011;379;49.022;12.148;2023-04-24T09:33:53;0.97;;;0.70;;
791;SDS011;379;49.022;12.148;2023-04-24T09:36:26;0.70;;;0.40;;
791;SDS011;379;49.022;12.148;2023-04-24T09:38:55;0.80;;;0.40;;
791;SDS011;379;49.022;12.148;2023-04-24T09:41:24;0.80;;;0.43;;
791;SDS011;379;49.022;12.148;2023-04-24T09:43:53;0.60;;;0.40;;
791;SDS011;379;49.022;12.148;2023-04-24T09:46:20;0.80;;;0.57;;
791;SDS011;379;49.022;12.148;2023-04-24T09:48:47;0.70;;;0.43;;
791;SDS011;379;49.022;12.148;2023-04-24T09:51:14;0.80;;;0.73;;
791;SDS011;379;49.022;12.148;2023-04-24T09:53:44;0.70;;;0.50;;
791;SDS011;379;49.022;12.148;2023-04-24T09:56:13;0.60;;;0.30;;
791;SDS011;379;49.022;12.148;2023-04-24T09:58:40;0.60;;;0.40;;
791;SDS011;379;49.022;12.148;2023-04-24T10:01:06;0.70;;;0.40;;
791;SDS011;379;49.022;12.148;2023-04-24T10:03:33;0.70;;;0.40;;
791;SDS011;379;49.022;12.148;2023-04-24T10:06:01;0.80;;;0.47;;
791;SDS011;379;49.022;12.148;2023-04-24T10:08:33;0.70;;;0.43;;
791;SDS011;379;49.022;12.148;2023-04-24T10:11:01;0.50;;;0.30;;
791;SDS011;379;49.022;12.148;2023-04-24T10:13:29;1.33;;;0.90;;
791;SDS011;379;49.022;12.148;2023-04-24T10:15:58;0.80;;;0.40;;
791;SDS011;379;49.022;12.148;2023-04-24T10:18:26;1.10;;;0.40;;
791;SDS011;379;49.022;12.148;2023-04-24T10:20:53;0.60;;;0.40;;
791;SDS011;379;49.022;12.148;2023-04-24T10:23:21;0.80;;;0.60;;
791;SDS011;379;49.022;12.148;2023-04-24T10:25:48;2.80;;;0.50;;
791;SDS011;379;49.022;12.148;2023-04-24T10:28:16;0.60;;;0.40;;
791;SDS011;379;49.022;12.148;2023-04-24T10:30:46;0.77;;;0.47;;
791;SDS011;379;49.022;12.148;2023-04-24T10:33:14;0.77;;;0.50;;
791;SDS011;379;49.022;12.148;2023-04-24T10:35:44;1.13;;;0.57;;
791;SDS011;379;49.022;12.148;2023-04-24T10:38:15;0.50;;;0.30;;
791;SDS011;379;49.022;12.148;2023-04-24T10:40:49;0.60;;;0.40;;
791;SDS011;379;49.022;12.148;2023-04-24T10:43:16;0.70;;;0.40;;
791;SDS011;379;49.022;12.148;2023-04-24T10:48:42;1.23;;;0.80;;
791;SDS011;379;49.022;12.148;2023-04-24T10:51:11;0.60;;;0.40;;
791;SDS011;379;49.022;12.148;2023-04-24T10:53:39;0.87;;;0.63;;
791;SDS011;379;49.022;12.148;2023-04-24T10:56:06;0.70;;;0.43;;
791;SDS011;379;49.022;12.148;2023-04-24T10:58:36;0.70;;;0.40;;
791;SDS011;379;49.022;12.148;2023-04-24T11:01:05;0.97;;;0.57;;
791;SDS011;379;49.022;12.148;2023-04-24T11:03:32;0.70;;;0.50;;
791;SDS011;379;49.022;12.148;2023-04-24T11:06:02;0.73;;;0.73;;
791;SDS011;379;49.022;12.148;2023-04-24T11:08:30;0.80;;;0.60;;
791;SDS011;379;49.022;12.148;2023-04-24T11:11:03;0.87;;;0.50;;
791;SDS011;379;49.022;12.148;2023-04-24T11:16:32;0.60;;;0.40;;
791;SDS011;379;49.022;12.148;2023-04-24T11:19:00;5.40;;;0.70;;
791;SDS011;379;49.022;12.148;2023-04-24T11:21:38;0.80;;;0.60;;
791;SDS011;379;49.022;12.148;2023-04-24T11:24:25;0.70;;;0.40;;
791;SDS011;379;49.022;12.148;2023-04-24T11:26:57;0.90;;;0.70;;
791;SDS011;379;49.022;12.148;2023-04-24T11:29:40;0.63;;;0.40;;
791;SDS011;379;49.022;12.148;2023-04-24T11:32:14;3.47;;;0.37;;
791;SDS011;379;49.022;12.148;2023-04-24T11:34:44;0.80;;;0.53;;
791;SDS011;379;49.022;12.148;2023-04-24T11:37:13;0.90;;;0.53;;
791;SDS011;379;49.022;12.148;2023-04-24T11:39:40;0.83;;;0.43;;
791;SDS011;379;49.022;12.148;2023-04-24T11:42:07;0.70;;;0.60;;
791;SDS011;379;49.022;12.148;2023-04-24T11:44:35;1.27;;;1.17;;
791;SDS011;379;49.022;12.148;2023-04-24T11:47:04;1.00;;;0.60;;
791;SDS011;379;49.022;12.148;2023-04-24T11:49:32;1.20;;;1.00;;
791;SDS011;379;49.022;12.148;2023-04-24T11:51:59;0.60;;;0.40;;
791;SDS011;379;49.022;12.148;2023-04-24T11:54:27;0.80;;;0.60;;
791;SDS011;379;49.022;12.148;2023-04-24T11:56:55;1.07;;;0.60;;
791;SDS011;379;49.022;12.148;2023-04-24T11:59:22;0.60;;;0.50;;
791;SDS011;379;49.022;12.148;2023-04-24T12:01:49;1.80;;;0.80;;
791;SDS011;379;49.022;12.148;2023-04-24T12:04:17;5.30;;;0.80;;
791;SDS011;379;49.022;12.148;2023-04-24T12:06:59;0.60;;;0.50;;
791;SDS011;379;49.022;12.148;2023-04-24T12:09:27;0.90;;;0.40;;
791;SDS011;379;49.022;12.148;2023-04-24T12:11:55;0.60;;;0.50;;
791;SDS011;379;49.022;12.148;2023-04-24T12:14:22;0.90;;;0.60;;
791;SDS011;379;49.022;12.148;2023-04-24T12:16:49;0.60;;;0.50;;
791;SDS011;379;49.022;12.148;2023-04-24T12:19:17;0.57;;;0.33;;
791;SDS011;379;49.022;12.148;2023-04-24T12:21:58;0.87;;;0.63;;
791;SDS011;379;49.022;12.148;2023-04-24T12:24:27;0.60;;;0.40;;
791;SDS011;379;49.022;12.148;2023-04-24T12:26:55;1.43;;;0.70;;
791;SDS011;379;49.022;12.148;2023-04-24T12:29:22;1.10;;;1.00;;
791;SDS011;379;49.022;12.148;2023-04-24T12:31:49;1.23;;;0.37;;
791;SDS011;379;49.022;12.148;2023-04-24T12:34:17;0.60;;;0.30;;
791;SDS011;379;49.022;12.148;2023-04-24T12:36:45;0.83;;;0.60;;
791;SDS011;379;49.022;12.148;2023-04-24T12:39:14;0.80;;;0.50;;
791;SDS011;379;49.022;12.148;2023-04-24T12:41:50;0.60;;;0.50;;
791;SDS011;379;49.022;12.148;2023-04-24T12:44:28;0.60;;;0.40;;
791;SDS011;379;49.022;12.148;2023-04-24T12:46:55;0.60;;;0.40;;
791;SDS011;379;49.022;12.148;2023-04-24T12:49:22;0.70;;;0.50;;
791;SDS011;379;49.022;12.148;2023-04-24T12:51:49;1.57;;;1.27;;
791;SDS011;379;49.022;12.148;2023-04-24T12:54:16;0.50;;;0.30;;
791;SDS011;379;49.022;12.148;2023-04-24T12:56:42;1.20;;;0.63;;
791;SDS011;379;49.022;12.148;2023-04-24T12:59:10;1.10;;;0.80;;
791;SDS011;379;49.022;12.148;2023-04-24T13:01:37;0.60;;;0.40;;
791;SDS011;379;49.022;12.148;2023-04-24T13:04:04;0.80;;;0.60;;
791;SDS011;379;49.022;12.148;2023-04-24T13:06:31;0.63;;;0.40;;
791;SDS011;379;49.022;12.148;2023-04-24T13:08:58;1.00;;;0.57;;
791;SDS011;379;49.022;12.148;2023-04-24T13:11:24;0.50;;;0.30;;
791;SDS011;379;49.022;12.148;2023-04-24T13:13:51;0.83;;;0.50;;
791;SDS011;379;49.022;12.148;2023-04-24T13:16:19;1.07;;;0.33;;
791;SDS011;379;49.022;12.148;2023-04-24T13:18:48;0.70;;;0.40;;
791;SDS011;379;49.022;12.148;2023-04-24T13:21:14;0.50;;;0.40;;
791;SDS011;379;49.022;12.148;2023-04-24T13:23:41;1.10;;;0.57;;
791;SDS011;379;49.022;12.148;2023-04-24T13:26:08;0.60;;;0.30;;
791;SDS011;379;49.022;12.148;2023-04-24T13:28:35;0.57;;;0.33;;
791;SDS011;379;49.022;12.148;2023-04-24T13:31:03;0.90;;;0.67;;
791;SDS011;379;49.022;12.148;2023-04-24T13:33:32;0.60;;;0.50;;
791;SDS011;379;49.022;12.148;2023-04-24T13:35:59;1.10;;;0.77;;
791;SDS011;379;49.022;12.148;2023-04-24T13:38:26;0.60;;;0.47;;
791;SDS011;379;49.022;12.148;2023-04-24T13:40:52;0.50;;;0.30;;
791;SDS011;379;49.022;12.148;2023-04-24T13:43:19;0.80;;;0.40;;
791;SDS011;379;49.022;12.148;2023-04-24T13:45:46;1.17;;;0.53;;
791;SDS011;379;49.022;12.148;2023-04-24T13:48:13;1.27;;;0.40;;
791;SDS011;379;49.022;12.148;2023-04-24T13:50:42;0.70;;;0.60;;
791;SDS011;379;49.022;12.148;2023-04-24T13:53:09;0.60;;;0.53;;
791;SDS011;379;49.022;12.148;2023-04-24T13:55:36;1.23;;;0.40;;
791;SDS011;379;49.022;12.148;2023-04-24T13:58:04;0.60;;;0.40;;
791;SDS011;379;49.022;12.148;2023-04-24T14:00:31;0.70;;;0.47;;
791;SDS011;379;49.022;12.148;2023-04-24T14:02:58;0.60;;;0.33;;
791;SDS011;379;49.022;12.148;2023-04-24T14:05:24;0.60;;;0.30;;
791;SDS011;379;49.022;12.148;2023-04-24T14:07:53;0.77;;;0.77;;
791;SDS011;379;49.022;12.148;2023-04-24T14:10:19;0.80;;;0.60;;
791;SDS011;379;49.022;12.148;2023-04-24T14:12:46;0.77;;;0.50;;
791;SDS011;379;49.022;12.148;2023-04-24T14:15:13;1.67;;;0.73;;
791;SDS011;379;49.022;12.148;2023-04-24T14:17:40;1.00;;;0.57;;
791;SDS011;379;49.022;12.148;2023-04-24T14:20:07;1.57;;;0.80;;
791;SDS011;379;49.022;12.148;2023-04-24T14:22:35;0.80;;;0.70;;
791;SDS011;379;49.022;12.148;2023-04-24T14:25:03;0.63;;;0.47;;
791;SDS011;379;49.022;12.148;2023-04-24T14:27:31;0.80;;;0.50;;
791;SDS011;379;49.022;12.148;2023-04-24T14:29:59;0.70;;;0.40;;
791;SDS011;379;49.022;12.148;2023-04-24T14:32:26;0.70;;;0.50;;
791;SDS011;379;49.022;12.148;2023-04-24T14:34:53;0.80;;;0.73;;
791;SDS011;379;49.022;12.148;2023-04-24T14:37:20;0.60;;;0.40;;
791;SDS011;379;49.022;12.148;2023-04-24T14:39:46;0.50;;;0.40;;
791;SDS011;379;49.022;12.148;2023-04-24T14:42:14;0.60;;;0.40;;
791;SDS011;379;49.022;12.148;2023-04-24T14:44:42;0.60;;;0.40;;
791;SDS011;379;49.022;12.148;2023-04-24T14:47:09;1.10;;;0.57;;
791;SDS011;379;49.022;12.148;2023-04-24T14:49:36;0.70;;;0.60;;
791;SDS011;379;49.022;12.148;2023-04-24T14:52:03;0.70;;;0.47;;
791;SDS011;379;49.022;12.148;2023-04-24T14:54:29;0.50;;;0.30;;
791;SDS011;379;49.022;12.148;2023-04-24T14:56:56;0.70;;;0.40;;
791;SDS011;379;49.022;12.148;2023-04-24T14:59:24;1.83;;;1.07;;
791;SDS011;379;49.022;12.148;2023-04-24T15:01:51;0.70;;;0.40;;
791;SDS011;379;49.022;12.148;2023-04-24T15:04:22;2.03;;;1.17;;
791;SDS011;379;49.022;12.148;2023-04-24T15:06:50;4.73;;;1.13;;
791;SDS011;379;49.022;12.148;2023-04-24T15:09:18;1.60;;;1.33;;
791;SDS011;379;49.022;12.148;2023-04-24T15:11:45;2.30;;;1.10;;
791;SDS011;379;49.022;12.148;2023-04-24T15:14:12;1.47;;;0.50;;
791;SDS011;379;49.022;12.148;2023-04-24T15:16:40;0.77;;;0.70;;
791;SDS011;379;49.022;12.148;2023-04-24T15:19:07;1.87;;;1.43;;
791;SDS011;379;49.022;12.148;2023-04-24T15:21:34;0.70;;;0.50;;
791;SDS011;379;49.022;12.148;2023-04-24T15:24:01;1.47;;;1.23;;
791;SDS011;379;49.022;12.148;2023-04-24T15:26:29;0.60;;;0.60;;
791;SDS011;379;49.022;12.148;2023-04-24T15:28:55;0.77;;;0.60;;
791;SDS011;379;49.022;12.148;2023-04-24T15:31:22;0.80;;;0.80;;
791;SDS011;379;49.022;12.148;2023-04-24T15:33:50;0.60;;;0.40;;
791;SDS011;379;49.022;12.148;2023-04-24T15:36:17;0.60;;;0.40;;
791;SDS011;379;49.022;12.148;2023-04-24T15:38:46;1.30;;;0.90;;